NCAR-RAP Real-Time Weather Data

Output produced by METARs form (14 October 2019  23:00 UTC)
found at http://weather.rap.ucar.edu/surface/
 
RJBB 142230Z 01014KT 9999 FEW020 SCT035 19/14 Q1022 NOSIG
 
RJBD 142240Z 36007KT 320V030 9999 FEW035 19/12 Q1020 RMK 1CU035 A3013
 
RJBE 142200Z VRB03KT 9999 FEW020 BKN030 19/13 Q1022
 
 
RJOA 142200Z 35007KT 300V040 9999 FEW020 SCT035 14/09 Q1024
 
RJOB 142200Z 35003KT 300V030 9999 FEW020 BKN040 15/12 Q1023
 
RJOC 142200Z 05016KT 9999 FEW020 BKN030 BKN035 16/10 Q1026
 
RJOH 142200Z 03016KT 9999 FEW015 BKN030 BKN050 17/09 Q1026
 
RJOI 142155Z 02017KT 9999 SCT025 BKN050 BKN230 18/12 A3023 RMK SLP235 T01830122
 
RJOK 142200Z 35015KT 9999 FEW025 19/09 Q1020
 
RJOM 142200Z 03014KT 9999 FEW025 19/13 Q1022
 
RJOO 142200Z 33003KT 9999 FEW020 SCT030 17/14 Q1022 RMK 1CU020 4CU030 A3019
 
RJOR 142200Z 02020KT 9999 FEW025 SCT030 BKN050 17/11 Q1025
 
RJOT 142200Z 15006KT 9999 FEW020 BKN045 14/13 Q1023
 
 
 
RJDC 142200Z 34005KT 9999 FEW025 15/11 Q1023
 
RJDT 142230Z 04016G31KT 360V070 8000 -SHRA FEW010 SCT015 BKN030 15/12 Q1025
 
 
RJFF 142230Z VRB01KT 9999 FEW030 SCT/// 16/13 Q1023 NOSIG
 
 
RJFK 142200Z 02006KT 9999 FEW030 13/13 Q1020 RMK 1CU030 A3014 VOLCANIC ASH CLOUD S
 
RJFO 142200Z 34009KT 9999 FEW025 SCT/// 19/13 Q1022
 
RJFR 142200Z 01010KT 9999 FEW030 SCT/// 18/12 Q1023
 
RJFS 142200Z 31004KT 9999 FEW020 SCT/// 14/13 Q1022
 
RJFT 142200Z 04004KT 350V060 9999 VCVA FEW030 16/13 Q1021
 
RJFU 142200Z 04006KT 340V100 9999 FEW025 BKN/// 18/12 Q1021
 
RJFM 142200Z 27005KT 9999 FEW040 17/15 Q1020